sensor_id;sensor_type;location;lat;lon;timestamp;temperature;humidity
40454;DHT22;26160;51.858;4.398;2023-07-24T00:01:13;18.10;99.90
40454;DHT22;26160;51.858;4.398;2023-07-24T00:03:39;18.10;99.90
40454;DHT22;26160;51.858;4.398;2023-07-24T00:06:05;18.10;99.90
40454;DHT22;26160;51.858;4.398;2023-07-24T00:08:32;18.10;99.90
40454;DHT22;26160;51.858;4.398;2023-07-24T00:10:58;18.10;99.90
40454;DHT22;26160;51.858;4.398;2023-07-24T00:13:24;18.10;99.90
40454;DHT22;26160;51.858;4.398;2023-07-24T00:15:57;18.10;99.90
40454;DHT22;26160;51.858;4.398;2023-07-24T00:18:36;18.10;99.90
40454;DHT22;26160;51.858;4.398;2023-07-24T00:21:03;18.20;99.90
40454;DHT22;26160;51.858;4.398;2023-07-24T00:23:29;18.20;99.90
40454;DHT22;26160;51.858;4.398;2023-07-24T00:25:55;18.20;99.90
40454;DHT22;26160;51.858;4.398;2023-07-24T00:28:32;18.10;99.90
40454;DHT22;26160;51.858;4.398;2023-07-24T00:30:58;18.10;99.90
40454;DHT22;26160;51.858;4.398;2023-07-24T00:33:24;18.10;99.90
40454;DHT22;26160;51.858;4.398;2023-07-24T00:35:55;18.10;99.90
40454;DHT22;26160;51.858;4.398;2023-07-24T00:38:23;18.00;99.90
40454;DHT22;26160;51.858;4.398;2023-07-24T00:40:50;18.10;99.90
40454;DHT22;26160;51.858;4.398;2023-07-24T00:43:19;18.10;99.90
40454;DHT22;26160;51.858;4.398;2023-07-24T00:45:46;18.10;99.90
40454;DHT22;26160;51.858;4.398;2023-07-24T00:48:15;18.00;99.90
40454;DHT22;26160;51.858;4.398;2023-07-24T00:50:43;17.90;99.90
40454;DHT22;26160;51.858;4.398;2023-07-24T00:53:11;17.90;99.90
40454;DHT22;26160;51.858;4.398;2023-07-24T00:55:39;17.90;99.90
40454;DHT22;26160;51.858;4.398;2023-07-24T00:58:05;17.90;99.90
40454;DHT22;26160;51.858;4.398;2023-07-24T01:03:08;17.90;99.90
40454;DHT22;26160;51.858;4.398;2023-07-24T01:05:34;17.90;99.90
40454;DHT22;26160;51.858;4.398;2023-07-24T01:08:00;17.90;99.90
40454;DHT22;26160;51.858;4.398;2023-07-24T01:10:26;17.90;99.90
40454;DHT22;26160;51.858;4.398;2023-07-24T01:12:59;17.90;99.90
40454;DHT22;26160;51.858;4.398;2023-07-24T01:15:35;18.00;99.90
40454;DHT22;26160;51.858;4.398;2023-07-24T01:18:13;18.00;99.90
40454;DHT22;26160;51.858;4.398;2023-07-24T01:20:50;18.00;99.90
40454;DHT22;26160;51.858;4.398;2023-07-24T01:23:44;18.00;99.90
40454;DHT22;26160;51.858;4.398;2023-07-24T01:26:12;17.90;99.90
40454;DHT22;26160;51.858;4.398;2023-07-24T01:28:38;17.90;99.90
40454;DHT22;26160;51.858;4.398;2023-07-24T01:31:05;17.90;99.90
40454;DHT22;26160;51.858;4.398;2023-07-24T01:33:32;17.90;99.90
40454;DHT22;26160;51.858;4.398;2023-07-24T01:36:02;17.90;99.90
40454;DHT22;26160;51.858;4.398;2023-07-24T01:38:31;18.00;99.90
40454;DHT22;26160;51.858;4.398;2023-07-24T01:40:59;17.90;99.90
40454;DHT22;26160;51.858;4.398;2023-07-24T01:43:27;17.90;99.90
40454;DHT22;26160;51.858;4.398;2023-07-24T01:45:54;18.00;99.90
40454;DHT22;26160;51.858;4.398;2023-07-24T01:48:20;18.00;99.90
40454;DHT22;26160;51.858;4.398;2023-07-24T01:50:46;17.90;99.90
40454;DHT22;26160;51.858;4.398;2023-07-24T01:53:16;17.90;99.90
40454;DHT22;26160;51.858;4.398;2023-07-24T01:55:42;17.80;99.90
40454;DHT22;26160;51.858;4.398;2023-07-24T01:58:08;17.80;99.90
40454;DHT22;26160;51.858;4.398;2023-07-24T02:00:34;17.90;99.90
40454;DHT22;26160;51.858;4.398;2023-07-24T02:03:00;17.80;99.90
40454;DHT22;26160;51.858;4.398;2023-07-24T02:05:26;17.80;99.90
40454;DHT22;26160;51.858;4.398;2023-07-24T02:07:56;17.80;99.90
40454;DHT22;26160;51.858;4.398;2023-07-24T02:10:22;17.70;99.90
40454;DHT22;26160;51.858;4.398;2023-07-24T02:12:48;17.80;99.90
40454;DHT22;26160;51.858;4.398;2023-07-24T02:15:14;17.70;99.90
40454;DHT22;26160;51.858;4.398;2023-07-24T02:17:40;17.60;99.90
40454;DHT22;26160;51.858;4.398;2023-07-24T02:20:08;17.60;99.90
40454;DHT22;26160;51.858;4.398;2023-07-24T02:22:34;17.60;99.90
40454;DHT22;26160;51.858;4.398;2023-07-24T02:25:01;17.60;99.90
40454;DHT22;26160;51.858;4.398;2023-07-24T02:27:29;17.50;99.90
40454;DHT22;26160;51.858;4.398;2023-07-24T02:29:57;17.50;99.90
40454;DHT22;26160;51.858;4.398;2023-07-24T02:32:24;17.60;99.90
40454;DHT22;26160;51.858;4.398;2023-07-24T02:34:51;17.60;99.90
40454;DHT22;26160;51.858;4.398;2023-07-24T02:37:17;17.60;99.90
40454;DHT22;26160;51.858;4.398;2023-07-24T02:39:43;17.60;99.90
40454;DHT22;26160;51.858;4.398;2023-07-24T02:42:10;17.60;99.90
40454;DHT22;26160;51.858;4.398;2023-07-24T02:44:36;17.60;99.90
40454;DHT22;26160;51.858;4.398;2023-07-24T02:47:02;17.60;99.90
40454;DHT22;26160;51.858;4.398;2023-07-24T02:49:29;17.60;99.90
40454;DHT22;26160;51.858;4.398;2023-07-24T02:51:55;17.60;99.90
40454;DHT22;26160;51.858;4.398;2023-07-24T02:54:21;17.60;99.90
40454;DHT22;26160;51.858;4.398;2023-07-24T02:56:47;17.70;99.90
40454;DHT22;26160;51.858;4.398;2023-07-24T02:59:13;17.60;99.90
40454;DHT22;26160;51.858;4.398;2023-07-24T03:01:39;17.60;99.90
40454;DHT22;26160;51.858;4.398;2023-07-24T03:04:05;17.60;99.90
40454;DHT22;26160;51.858;4.398;2023-07-24T03:06:32;17.70;99.90
40454;DHT22;26160;51.858;4.398;2023-07-24T03:08:58;17.70;99.90
40454;DHT22;26160;51.858;4.398;2023-07-24T03:11:24;17.70;99.90
40454;DHT22;26160;51.858;4.398;2023-07-24T03:13:50;17.70;99.90
40454;DHT22;26160;51.858;4.398;2023-07-24T03:16:16;17.70;99.90
40454;DHT22;26160;51.858;4.398;2023-07-24T03:18:47;17.70;99.90
40454;DHT22;26160;51.858;4.398;2023-07-24T03:21:13;17.70;99.90
40454;DHT22;26160;51.858;4.398;2023-07-24T03:23:39;17.70;99.90
40454;DHT22;26160;51.858;4.398;2023-07-24T03:26:05;17.70;99.90
40454;DHT22;26160;51.858;4.398;2023-07-24T03:28:31;17.60;99.90
40454;DHT22;26160;51.858;4.398;2023-07-24T03:30:57;17.70;99.90
40454;DHT22;26160;51.858;4.398;2023-07-24T03:33:23;17.70;99.90
40454;DHT22;26160;51.858;4.398;2023-07-24T03:35:49;17.70;99.90
40454;DHT22;26160;51.858;4.398;2023-07-24T03:38:16;17.70;99.90
40454;DHT22;26160;51.858;4.398;2023-07-24T03:40:42;17.70;99.90
40454;DHT22;26160;51.858;4.398;2023-07-24T03:43:08;17.70;99.90
40454;DHT22;26160;51.858;4.398;2023-07-24T03:45:34;17.70;99.90
40454;DHT22;26160;51.858;4.398;2023-07-24T03:48:01;17.60;99.90
40454;DHT22;26160;51.858;4.398;2023-07-24T03:50:29;17.60;99.90
40454;DHT22;26160;51.858;4.398;2023-07-24T03:52:55;17.70;99.90
40454;DHT22;26160;51.858;4.398;2023-07-24T03:55:21;17.70;99.90
40454;DHT22;26160;51.858;4.398;2023-07-24T03:57:47;17.60;99.90
40454;DHT22;26160;51.858;4.398;2023-07-24T04:00:14;17.60;99.90
40454;DHT22;26160;51.858;4.398;2023-07-24T04:02:40;17.60;99.90
40454;DHT22;26160;51.858;4.398;2023-07-24T04:05:06;17.60;99.90
40454;DHT22;26160;51.858;4.398;2023-07-24T04:07:32;17.50;99.90
40454;DHT22;26160;51.858;4.398;2023-07-24T04:09:58;17.50;99.90
40454;DHT22;26160;51.858;4.398;2023-07-24T04:12:25;17.50;99.90
40454;DHT22;26160;51.858;4.398;2023-07-24T04:14:51;17.50;99.90
40454;DHT22;26160;51.858;4.398;2023-07-24T04:17:17;17.50;99.90
40454;DHT22;26160;51.858;4.398;2023-07-24T04:19:43;17.50;99.90
40454;DHT22;26160;51.858;4.398;2023-07-24T04:22:09;17.40;99.90
40454;DHT22;26160;51.858;4.398;2023-07-24T04:24:35;17.40;99.90
40454;DHT22;26160;51.858;4.398;2023-07-24T04:27:01;17.40;99.90
40454;DHT22;26160;51.858;4.398;2023-07-24T04:29:28;17.40;99.90
40454;DHT22;26160;51.858;4.398;2023-07-24T04:31:54;17.40;99.90
40454;DHT22;26160;51.858;4.398;2023-07-24T04:34:20;17.40;99.90
40454;DHT22;26160;51.858;4.398;2023-07-24T04:36:46;17.40;99.90
40454;DHT22;26160;51.858;4.398;2023-07-24T04:39:12;17.30;99.90
40454;DHT22;26160;51.858;4.398;2023-07-24T04:41:38;17.30;99.90
40454;DHT22;26160;51.858;4.398;2023-07-24T04:44:05;17.30;99.90
40454;DHT22;26160;51.858;4.398;2023-07-24T04:46:31;17.30;99.90
40454;DHT22;26160;51.858;4.398;2023-07-24T04:48:57;17.40;99.90
40454;DHT22;26160;51.858;4.398;2023-07-24T04:51:23;17.40;99.90
40454;DHT22;26160;51.858;4.398;2023-07-24T04:53:50;17.40;99.90
40454;DHT22;26160;51.858;4.398;2023-07-24T04:56:16;17.40;99.90
40454;DHT22;26160;51.858;4.398;2023-07-24T04:58:42;17.40;99.90
40454;DHT22;26160;51.858;4.398;2023-07-24T05:01:08;17.40;99.90
40454;DHT22;26160;51.858;4.398;2023-07-24T05:03:35;17.40;99.90
40454;DHT22;26160;51.858;4.398;2023-07-24T05:06:01;17.40;99.90
40454;DHT22;26160;51.858;4.398;2023-07-24T05:08:27;17.30;99.90
40454;DHT22;26160;51.858;4.398;2023-07-24T05:10:58;17.30;99.90
40454;DHT22;26160;51.858;4.398;2023-07-24T05:13:28;17.30;99.90
40454;DHT22;26160;51.858;4.398;2023-07-24T05:15:54;17.30;99.90
40454;DHT22;26160;51.858;4.398;2023-07-24T05:18:20;17.30;99.90
40454;DHT22;26160;51.858;4.398;2023-07-24T05:20:47;17.30;99.90
40454;DHT22;26160;51.858;4.398;2023-07-24T05:23:14;17.20;99.90
40454;DHT22;26160;51.858;4.398;2023-07-24T05:25:41;17.20;99.90
40454;DHT22;26160;51.858;4.398;2023-07-24T05:28:07;17.30;99.90
40454;DHT22;26160;51.858;4.398;2023-07-24T05:30:33;17.30;99.90
40454;DHT22;26160;51.858;4.398;2023-07-24T05:33:00;17.30;99.90
40454;DHT22;26160;51.858;4.398;2023-07-24T05:35:26;17.50;99.90
40454;DHT22;26160;51.858;4.398;2023-07-24T05:37:52;17.60;99.90
40454;DHT22;26160;51.858;4.398;2023-07-24T05:40:18;17.80;99.90
40454;DHT22;26160;51.858;4.398;2023-07-24T05:42:45;17.80;99.90
40454;DHT22;26160;51.858;4.398;2023-07-24T05:45:12;18.00;99.90
40454;DHT22;26160;51.858;4.398;2023-07-24T05:47:40;18.20;99.90
40454;DHT22;26160;51.858;4.398;2023-07-24T05:50:06;18.30;99.90
40454;DHT22;26160;51.858;4.398;2023-07-24T05:52:33;18.30;99.90
40454;DHT22;26160;51.858;4.398;2023-07-24T05:54:59;18.30;99.90
40454;DHT22;26160;51.858;4.398;2023-07-24T05:57:25;18.10;99.90
40454;DHT22;26160;51.858;4.398;2023-07-24T05:59:51;18.20;99.90
40454;DHT22;26160;51.858;4.398;2023-07-24T06:02:18;18.50;99.90
40454;DHT22;26160;51.858;4.398;2023-07-24T06:04:44;18.70;99.90
40454;DHT22;26160;51.858;4.398;2023-07-24T06:07:10;18.90;99.90
40454;DHT22;26160;51.858;4.398;2023-07-24T06:09:36;18.80;99.90
40454;DHT22;26160;51.858;4.398;2023-07-24T06:12:03;18.80;99.90
40454;DHT22;26160;51.858;4.398;2023-07-24T06:14:29;18.70;99.90
40454;DHT22;26160;51.858;4.398;2023-07-24T06:16:55;18.60;99.90
40454;DHT22;26160;51.858;4.398;2023-07-24T06:19:21;18.60;99.90
40454;DHT22;26160;51.858;4.398;2023-07-24T06:21:47;18.80;99.90
40454;DHT22;26160;51.858;4.398;2023-07-24T06:24:13;19.10;99.90
40454;DHT22;26160;51.858;4.398;2023-07-24T06:26:40;19.10;99.90
40454;DHT22;26160;51.858;4.398;2023-07-24T06:29:06;19.10;99.90
40454;DHT22;26160;51.858;4.398;2023-07-24T06:31:35;19.00;99.90
40454;DHT22;26160;51.858;4.398;2023-07-24T06:34:01;18.90;99.90
40454;DHT22;26160;51.858;4.398;2023-07-24T06:36:27;18.90;99.90
40454;DHT22;26160;51.858;4.398;2023-07-24T06:38:53;18.80;99.90
40454;DHT22;26160;51.858;4.398;2023-07-24T06:41:20;18.70;99.90
40454;DHT22;26160;51.858;4.398;2023-07-24T06:43:49;18.70;99.90
40454;DHT22;26160;51.858;4.398;2023-07-24T06:46:15;18.80;99.90
40454;DHT22;26160;51.858;4.398;2023-07-24T06:48:41;18.80;99.90
40454;DHT22;26160;51.858;4.398;2023-07-24T06:51:07;18.80;99.90
40454;DHT22;26160;51.858;4.398;2023-07-24T06:53:34;18.80;99.90
40454;DHT22;26160;51.858;4.398;2023-07-24T06:56:00;18.70;99.90
40454;DHT22;26160;51.858;4.398;2023-07-24T06:58:26;18.60;99.90
40454;DHT22;26160;51.858;4.398;2023-07-24T07:00:52;18.60;99.90
40454;DHT22;26160;51.858;4.398;2023-07-24T07:03:18;18.50;99.90
40454;DHT22;26160;51.858;4.398;2023-07-24T07:05:45;18.40;99.90
40454;DHT22;26160;51.858;4.398;2023-07-24T07:08:11;18.30;99.90
40454;DHT22;26160;51.858;4.398;2023-07-24T07:10:38;18.40;99.90
40454;DHT22;26160;51.858;4.398;2023-07-24T07:13:05;18.40;99.90
40454;DHT22;26160;51.858;4.398;2023-07-24T07:15:31;18.40;99.90
40454;DHT22;26160;51.858;4.398;2023-07-24T07:17:57;18.40;99.90
40454;DHT22;26160;51.858;4.398;2023-07-24T07:20:23;18.30;99.90
40454;DHT22;26160;51.858;4.398;2023-07-24T07:22:50;18.30;99.90
40454;DHT22;26160;51.858;4.398;2023-07-24T07:25:16;18.30;99.90
40454;DHT22;26160;51.858;4.398;2023-07-24T07:27:42;18.30;99.90
40454;DHT22;26160;51.858;4.398;2023-07-24T07:30:08;18.10;99.90
40454;DHT22;26160;51.858;4.398;2023-07-24T07:32:35;18.30;99.90
40454;DHT22;26160;51.858;4.398;2023-07-24T07:35:01;18.40;99.90
40454;DHT22;26160;51.858;4.398;2023-07-24T07:37:29;18.70;99.90
40454;DHT22;26160;51.858;4.398;2023-07-24T07:39:55;18.80;99.90
40454;DHT22;26160;51.858;4.398;2023-07-24T07:42:21;19.10;99.90
40454;DHT22;26160;51.858;4.398;2023-07-24T07:44:47;19.20;99.90
40454;DHT22;26160;51.858;4.398;2023-07-24T07:47:13;19.40;99.90
40454;DHT22;26160;51.858;4.398;2023-07-24T07:49:39;19.50;99.90
40454;DHT22;26160;51.858;4.398;2023-07-24T07:52:06;19.30;99.90
40454;DHT22;26160;51.858;4.398;2023-07-24T07:54:32;19.40;99.90
40454;DHT22;26160;51.858;4.398;2023-07-24T07:56:58;19.70;99.90
40454;DHT22;26160;51.858;4.398;2023-07-24T07:59:24;19.60;99.90
40454;DHT22;26160;51.858;4.398;2023-07-24T08:01:50;19.50;99.90
40454;DHT22;26160;51.858;4.398;2023-07-24T08:04:17;19.40;99.90
40454;DHT22;26160;51.858;4.398;2023-07-24T08:06:44;19.40;99.90
40454;DHT22;26160;51.858;4.398;2023-07-24T08:09:10;19.50;99.90
40454;DHT22;26160;51.858;4.398;2023-07-24T08:11:36;19.30;99.90
40454;DHT22;26160;51.858;4.398;2023-07-24T08:14:02;19.20;99.90
40454;DHT22;26160;51.858;4.398;2023-07-24T08:16:28;19.10;99.90
40454;DHT22;26160;51.858;4.398;2023-07-24T08:18:55;19.10;99.90
40454;DHT22;26160;51.858;4.398;2023-07-24T08:21:21;19.00;99.90
40454;DHT22;26160;51.858;4.398;2023-07-24T08:23:47;19.00;99.90
40454;DHT22;26160;51.858;4.398;2023-07-24T08:26:13;19.20;99.90
40454;DHT22;26160;51.858;4.398;2023-07-24T08:28:39;19.80;99.90
40454;DHT22;26160;51.858;4.398;2023-07-24T08:31:08;20.40;99.90
40454;DHT22;26160;51.858;4.398;2023-07-24T08:33:34;20.30;99.90
40454;DHT22;26160;51.858;4.398;2023-07-24T08:36:05;20.00;99.90
40454;DHT22;26160;51.858;4.398;2023-07-24T08:38:33;19.90;99.90
40454;DHT22;26160;51.858;4.398;2023-07-24T08:41:10;19.90;99.90
40454;DHT22;26160;51.858;4.398;2023-07-24T08:43:37;19.70;99.90
40454;DHT22;26160;51.858;4.398;2023-07-24T08:46:05;19.50;99.90
40454;DHT22;26160;51.858;4.398;2023-07-24T08:48:33;19.50;99.90
40454;DHT22;26160;51.858;4.398;2023-07-24T08:51:02;19.60;99.90
40454;DHT22;26160;51.858;4.398;2023-07-24T08:53:29;19.90;99.90
40454;DHT22;26160;51.858;4.398;2023-07-24T08:56:00;20.10;99.90
40454;DHT22;26160;51.858;4.398;2023-07-24T08:58:30;20.30;99.90
40454;DHT22;26160;51.858;4.398;2023-07-24T09:00:57;20.50;99.90
40454;DHT22;26160;51.858;4.398;2023-07-24T09:03:24;20.70;99.90
40454;DHT22;26160;51.858;4.398;2023-07-24T09:05:51;20.90;99.90
40454;DHT22;26160;51.858;4.398;2023-07-24T09:08:17;21.10;99.90
40454;DHT22;26160;51.858;4.398;2023-07-24T09:10:53;21.20;99.90
40454;DHT22;26160;51.858;4.398;2023-07-24T09:13:19;21.40;99.90
40454;DHT22;26160;51.858;4.398;2023-07-24T09:15:45;21.60;99.90
40454;DHT22;26160;51.858;4.398;2023-07-24T09:18:12;21.30;99.90
40454;DHT22;26160;51.858;4.398;2023-07-24T09:20:43;21.30;99.90
40454;DHT22;26160;51.858;4.398;2023-07-24T09:23:10;21.70;99.90
40454;DHT22;26160;51.858;4.398;2023-07-24T09:25:40;21.40;99.90
40454;DHT22;26160;51.858;4.398;2023-07-24T09:28:13;21.10;99.90
40454;DHT22;26160;51.858;4.398;2023-07-24T09:30:41;20.50;99.90
40454;DHT22;26160;51.858;4.398;2023-07-24T09:33:07;20.30;99.90
40454;DHT22;26160;51.858;4.398;2023-07-24T09:35:34;19.90;99.90
40454;DHT22;26160;51.858;4.398;2023-07-24T09:38:06;19.80;99.90
40454;DHT22;26160;51.858;4.398;2023-07-24T09:43:18;20.20;99.90
40454;DHT22;26160;51.858;4.398;2023-07-24T09:45:46;20.20;99.90
40454;DHT22;26160;51.858;4.398;2023-07-24T09:48:14;20.00;99.90
40454;DHT22;26160;51.858;4.398;2023-07-24T09:50:54;19.90;99.90
40454;DHT22;26160;51.858;4.398;2023-07-24T09:53:21;19.60;99.90
40454;DHT22;26160;51.858;4.398;2023-07-24T09:55:57;19.00;99.90
40454;DHT22;26160;51.858;4.398;2023-07-24T09:58:25;18.60;99.90
40454;DHT22;26160;51.858;4.398;2023-07-24T10:00:53;18.50;99.90
40454;DHT22;26160;51.858;4.398;2023-07-24T10:03:20;18.50;99.90
40454;DHT22;26160;51.858;4.398;2023-07-24T10:05:47;18.60;99.90
40454;DHT22;26160;51.858;4.398;2023-07-24T10:08:15;19.10;99.90
40454;DHT22;26160;51.858;4.398;2023-07-24T10:10:42;19.90;99.90
40454;DHT22;26160;51.858;4.398;2023-07-24T10:13:09;20.40;99.90
40454;DHT22;26160;51.858;4.398;2023-07-24T10:15:37;20.30;99.90
40454;DHT22;26160;51.858;4.398;2023-07-24T10:18:06;20.70;99.90
40454;DHT22;26160;51.858;4.398;2023-07-24T10:20:36;20.90;99.90
40454;DHT22;26160;51.858;4.398;2023-07-24T10:23:05;20.70;99.90
40454;DHT22;26160;51.858;4.398;2023-07-24T10:25:33;20.60;99.90
40454;DHT22;26160;51.858;4.398;2023-07-24T10:28:04;20.50;99.90
40454;DHT22;26160;51.858;4.398;2023-07-24T10:30:34;20.30;99.90
40454;DHT22;26160;51.858;4.398;2023-07-24T10:33:05;20.40;99.90
40454;DHT22;26160;51.858;4.398;2023-07-24T10:35:52;20.40;99.90
40454;DHT22;26160;51.858;4.398;2023-07-24T10:38:18;20.30;99.90
40454;DHT22;26160;51.858;4.398;2023-07-24T10:40:46;20.60;99.90
40454;DHT22;26160;51.858;4.398;2023-07-24T10:43:18;20.60;99.90
40454;DHT22;26160;51.858;4.398;2023-07-24T10:45:52;20.30;99.90
40454;DHT22;26160;51.858;4.398;2023-07-24T10:48:24;20.00;99.90
40454;DHT22;26160;51.858;4.398;2023-07-24T10:50:51;20.40;99.90
40454;DHT22;26160;51.858;4.398;2023-07-24T10:53:19;20.90;99.90
40454;DHT22;26160;51.858;4.398;2023-07-24T10:55:50;20.80;99.90
40454;DHT22;26160;51.858;4.398;2023-07-24T10:58:16;20.50;99.90
40454;DHT22;26160;51.858;4.398;2023-07-24T11:00:43;20.30;99.90
40454;DHT22;26160;51.858;4.398;2023-07-24T11:03:11;20.00;99.90
40454;DHT22;26160;51.858;4.398;2023-07-24T11:05:42;19.90;99.90
40454;DHT22;26160;51.858;4.398;2023-07-24T11:08:13;19.80;99.90
40454;DHT22;26160;51.858;4.398;2023-07-24T11:10:53;19.80;99.90
40454;DHT22;26160;51.858;4.398;2023-07-24T11:13:26;19.90;99.90
40454;DHT22;26160;51.858;4.398;2023-07-24T11:15:54;19.90;99.90
40454;DHT22;26160;51.858;4.398;2023-07-24T11:18:21;20.10;99.90
40454;DHT22;26160;51.858;4.398;2023-07-24T11:20:53;20.40;99.90
40454;DHT22;26160;51.858;4.398;2023-07-24T11:23:21;20.40;99.90
40454;DHT22;26160;51.858;4.398;2023-07-24T11:25:53;20.10;99.90
40454;DHT22;26160;51.858;4.398;2023-07-24T11:28:20;20.10;99.90
40454;DHT22;26160;51.858;4.398;2023-07-24T11:30:46;20.00;99.90
40454;DHT22;26160;51.858;4.398;2023-07-24T11:33:15;20.00;99.90
40454;DHT22;26160;51.858;4.398;2023-07-24T11:35:41;19.90;99.90
40454;DHT22;26160;51.858;4.398;2023-07-24T11:38:08;19.70;99.90
40454;DHT22;26160;51.858;4.398;2023-07-24T11:40:46;19.60;99.90
40454;DHT22;26160;51.858;4.398;2023-07-24T11:43:18;19.40;99.90
40454;DHT22;26160;51.858;4.398;2023-07-24T11:45:45;19.60;99.90
40454;DHT22;26160;51.858;4.398;2023-07-24T11:48:13;19.70;99.90
40454;DHT22;26160;51.858;4.398;2023-07-24T11:50:44;20.10;99.90
40454;DHT22;26160;51.858;4.398;2023-07-24T11:53:29;20.30;99.90
40454;DHT22;26160;51.858;4.398;2023-07-24T11:55:58;20.40;99.90
40454;DHT22;26160;51.858;4.398;2023-07-24T11:58:27;20.50;99.90
40454;DHT22;26160;51.858;4.398;2023-07-24T12:00:54;20.50;99.90
40454;DHT22;26160;51.858;4.398;2023-07-24T12:03:21;20.30;99.90
40454;DHT22;26160;51.858;4.398;2023-07-24T12:05:48;20.30;99.90
40454;DHT22;26160;51.858;4.398;2023-07-24T12:08:14;20.40;99.90
40454;DHT22;26160;51.858;4.398;2023-07-24T12:10:41;20.60;99.90
40454;DHT22;26160;51.858;4.398;2023-07-24T12:13:07;21.30;99.90
40454;DHT22;26160;51.858;4.398;2023-07-24T12:15:33;21.80;99.90
40454;DHT22;26160;51.858;4.398;2023-07-24T12:18:04;21.80;99.90
40454;DHT22;26160;51.858;4.398;2023-07-24T12:20:31;21.60;99.90
40454;DHT22;26160;51.858;4.398;2023-07-24T12:22:57;21.40;99.90
40454;DHT22;26160;51.858;4.398;2023-07-24T12:25:24;21.00;99.90
40454;DHT22;26160;51.858;4.398;2023-07-24T12:27:50;20.60;99.90
40454;DHT22;26160;51.858;4.398;2023-07-24T12:30:16;20.40;99.90
40454;DHT22;26160;51.858;4.398;2023-07-24T12:32:42;20.10;99.90
40454;DHT22;26160;51.858;4.398;2023-07-24T12:35:09;20.20;99.90
40454;DHT22;26160;51.858;4.398;2023-07-24T12:37:35;20.00;99.90
40454;DHT22;26160;51.858;4.398;2023-07-24T12:40:02;19.90;99.90
40454;DHT22;26160;51.858;4.398;2023-07-24T12:42:30;19.90;99.90
40454;DHT22;26160;51.858;4.398;2023-07-24T12:44:56;20.00;99.90
40454;DHT22;26160;51.858;4.398;2023-07-24T12:47:24;19.90;99.90
40454;DHT22;26160;51.858;4.398;2023-07-24T12:49:50;20.00;99.90
40454;DHT22;26160;51.858;4.398;2023-07-24T12:52:18;20.10;99.90
40454;DHT22;26160;51.858;4.398;2023-07-24T12:54:44;20.20;99.90
40454;DHT22;26160;51.858;4.398;2023-07-24T12:57:10;20.50;99.90
40454;DHT22;26160;51.858;4.398;2023-07-24T12:59:36;21.10;99.90
40454;DHT22;26160;51.858;4.398;2023-07-24T13:02:03;21.40;99.90
40454;DHT22;26160;51.858;4.398;2023-07-24T13:04:29;21.20;99.90
40454;DHT22;26160;51.858;4.398;2023-07-24T13:06:55;21.10;99.90
40454;DHT22;26160;51.858;4.398;2023-07-24T13:09:21;20.90;99.90
40454;DHT22;26160;51.858;4.398;2023-07-24T13:11:49;21.10;99.90
40454;DHT22;26160;51.858;4.398;2023-07-24T13:14:17;20.90;99.90
40454;DHT22;26160;51.858;4.398;2023-07-24T13:16:44;20.50;99.90
40454;DHT22;26160;51.858;4.398;2023-07-24T13:19:10;20.00;99.90
40454;DHT22;26160;51.858;4.398;2023-07-24T13:21:36;19.90;99.90
40454;DHT22;26160;51.858;4.398;2023-07-24T13:24:02;19.80;99.90
40454;DHT22;26160;51.858;4.398;2023-07-24T13:26:29;19.50;99.90
40454;DHT22;26160;51.858;4.398;2023-07-24T13:28:55;19.20;99.90
40454;DHT22;26160;51.858;4.398;2023-07-24T13:31:21;18.90;99.90
40454;DHT22;26160;51.858;4.398;2023-07-24T13:33:50;18.70;99.90
40454;DHT22;26160;51.858;4.398;2023-07-24T13:36:16;18.60;99.90
40454;DHT22;26160;51.858;4.398;2023-07-24T13:38:42;18.70;99.90
40454;DHT22;26160;51.858;4.398;2023-07-24T13:41:09;18.60;99.90
40454;DHT22;26160;51.858;4.398;2023-07-24T13:43:35;18.50;99.90
40454;DHT22;26160;51.858;4.398;2023-07-24T13:46:01;18.40;99.90
40454;DHT22;26160;51.858;4.398;2023-07-24T13:48:30;18.10;99.90
40454;DHT22;26160;51.858;4.398;2023-07-24T13:50:56;18.10;99.90
40454;DHT22;26160;51.858;4.398;2023-07-24T13:53:23;18.20;99.90
40454;DHT22;26160;51.858;4.398;2023-07-24T13:55:49;18.00;99.90
40454;DHT22;26160;51.858;4.398;2023-07-24T13:58:15;18.00;99.90
40454;DHT22;26160;51.858;4.398;2023-07-24T14:00:41;17.90;99.90
40454;DHT22;26160;51.858;4.398;2023-07-24T14:03:07;18.00;99.90
40454;DHT22;26160;51.858;4.398;2023-07-24T14:05:34;17.80;99.90
40454;DHT22;26160;51.858;4.398;2023-07-24T14:08:03;17.70;99.90
40454;DHT22;26160;51.858;4.398;2023-07-24T14:10:29;17.70;99.90
40454;DHT22;26160;51.858;4.398;2023-07-24T14:12:55;17.60;99.90
40454;DHT22;26160;51.858;4.398;2023-07-24T14:15:21;17.50;99.90
40454;DHT22;26160;51.858;4.398;2023-07-24T14:17:47;17.50;99.90
40454;DHT22;26160;51.858;4.398;2023-07-24T14:20:14;17.50;99.90
40454;DHT22;26160;51.858;4.398;2023-07-24T14:22:40;17.60;99.90
40454;DHT22;26160;51.858;4.398;2023-07-24T14:25:06;17.80;99.90
40454;DHT22;26160;51.858;4.398;2023-07-24T14:27:32;18.20;99.90
40454;DHT22;26160;51.858;4.398;2023-07-24T14:29:59;18.40;99.90
40454;DHT22;26160;51.858;4.398;2023-07-24T14:32:25;18.30;99.90
40454;DHT22;26160;51.858;4.398;2023-07-24T14:34:52;18.20;99.90
40454;DHT22;26160;51.858;4.398;2023-07-24T14:37:19;18.10;99.90
40454;DHT22;26160;51.858;4.398;2023-07-24T14:39:46;18.10;99.90
40454;DHT22;26160;51.858;4.398;2023-07-24T14:42:12;17.90;99.90
40454;DHT22;26160;51.858;4.398;2023-07-24T14:44:39;17.90;99.90
40454;DHT22;26160;51.858;4.398;2023-07-24T14:47:05;17.60;99.90
40454;DHT22;26160;51.858;4.398;2023-07-24T14:49:32;17.30;99.90
40454;DHT22;26160;51.858;4.398;2023-07-24T14:51:58;17.20;99.90
40454;DHT22;26160;51.858;4.398;2023-07-24T14:54:25;17.10;99.90
40454;DHT22;26160;51.858;4.398;2023-07-24T14:56:51;17.10;99.90
40454;DHT22;26160;51.858;4.398;2023-07-24T14:59:17;17.00;99.90
40454;DHT22;26160;51.858;4.398;2023-07-24T15:01:43;16.90;99.90
40454;DHT22;26160;51.858;4.398;2023-07-24T15:04:09;16.70;99.90
40454;DHT22;26160;51.858;4.398;2023-07-24T15:06:35;16.80;99.90
40454;DHT22;26160;51.858;4.398;2023-07-24T15:09:01;16.90;99.90
40454;DHT22;26160;51.858;4.398;2023-07-24T15:11:28;16.90;99.90
40454;DHT22;26160;51.858;4.398;2023-07-24T15:13:55;17.00;99.90
40454;DHT22;26160;51.858;4.398;2023-07-24T15:16:21;17.00;99.90
40454;DHT22;26160;51.858;4.398;2023-07-24T15:18:47;16.90;99.90
40454;DHT22;26160;51.858;4.398;2023-07-24T15:21:14;17.00;99.90
40454;DHT22;26160;51.858;4.398;2023-07-24T15:23:40;17.00;99.90
40454;DHT22;26160;51.858;4.398;2023-07-24T15:26:06;16.90;99.90
40454;DHT22;26160;51.858;4.398;2023-07-24T15:28:32;16.80;99.90
40454;DHT22;26160;51.858;4.398;2023-07-24T15:30:58;16.90;99.90
40454;DHT22;26160;51.858;4.398;2023-07-24T15:33:24;16.70;99.90
40454;DHT22;26160;51.858;4.398;2023-07-24T15:35:51;16.60;99.90